LED8 ENSK-ENBO
Flight info
| Callsign | LED8 |
|---|---|
| Flight time | 0h 36m |
| Altitude | 8000 |
| Route | UPUGU DCT ARDUX |
| Aircraft | C208/L-SDFGR/C |
Departure
| Time | 2026-04-24 20:43 |
|---|---|
| Airport | Stokmarknes Airport, Skagen (ENSK) |
Arrival
| Time | 2026-04-24 21:20 |
|---|---|
| Airport | Bodø Airport (ENBO) |
| Time | Latitude | Longitude | Altitude | Speed | Heading |
|---|---|---|---|---|---|
| 2026-04-24 20:22 | 68.57985 | 15.03064 | 21 ft | 0 kts | 270° |
| 2026-04-24 20:37 | 68.57990 | 15.03044 | 22 ft | 2 kts | 336° |
| 2026-04-24 20:37 | 68.58020 | 15.03050 | 21 ft | 6 kts | 1° |
| 2026-04-24 20:38 | 68.58070 | 15.03022 | 18 ft | 10 kts | 300° |
| 2026-04-24 20:38 | 68.58074 | 15.02840 | 18 ft | 9 kts | 270° |
| 2026-04-24 20:38 | 68.58077 | 15.02605 | 19 ft | 18 kts | 272° |
| 2026-04-24 20:38 | 68.58081 | 15.02221 | 21 ft | 20 kts | 272° |
| 2026-04-24 20:39 | 68.58083 | 15.01881 | 20 ft | 16 kts | 272° |
| 2026-04-24 20:39 | 68.58085 | 15.01596 | 19 ft | 15 kts | 271° |
| 2026-04-24 20:39 | 68.58088 | 15.01323 | 18 ft | 13 kts | 271° |
| 2026-04-24 20:39 | 68.58090 | 15.01100 | 19 ft | 7 kts | 276° |
| 2026-04-24 20:40 | 68.58107 | 15.01017 | 23 ft | 3 kts | 270° |
| 2026-04-24 20:40 | 68.58093 | 15.01014 | 21 ft | 3 kts | 125° |
| 2026-04-24 20:40 | 68.58091 | 15.01032 | 21 ft | 0 kts | 92° |
| 2026-04-24 20:42 | 68.58091 | 15.01033 | 21 ft | 0 kts | 92° |
| 2026-04-24 20:42 | 68.58091 | 15.01062 | 21 ft | 16 kts | 91° |
| 2026-04-24 20:43 | 68.58083 | 15.02036 | 55 ft | 75 kts | 92° |
| 2026-04-24 20:43 | 68.58048 | 15.03726 | 233 ft | 104 kts | 95° |
| 2026-04-24 20:43 | 68.57991 | 15.05699 | 551 ft | 105 kts | 93° |
| 2026-04-24 20:43 | 68.57913 | 15.07672 | 902 ft | 104 kts | 110° |
| 2026-04-24 20:44 | 68.57456 | 15.09230 | 1224 ft | 110 kts | 146° |
| 2026-04-24 20:44 | 68.56715 | 15.09879 | 1553 ft | 116 kts | 178° |
| 2026-04-24 20:44 | 68.55927 | 15.09441 | 1907 ft | 115 kts | 209° |
| 2026-04-24 20:44 | 68.55312 | 15.08032 | 2207 ft | 118 kts | 231° |
| 2026-04-24 20:45 | 68.54756 | 15.06365 | 2528 ft | 119 kts | 233° |
| 2026-04-24 20:45 | 68.54190 | 15.04691 | 2829 ft | 123 kts | 220° |
| 2026-04-24 20:45 | 68.53429 | 15.03589 | 3134 ft | 126 kts | 206° |
| 2026-04-24 20:45 | 68.52617 | 15.02569 | 3395 ft | 132 kts | 207° |
| 2026-04-24 20:46 | 68.51772 | 15.01466 | 3632 ft | 138 kts | 208° |
| 2026-04-24 20:46 | 68.50897 | 15.00281 | 3877 ft | 142 kts | 209° |
| 2026-04-24 20:46 | 68.50007 | 14.99024 | 4099 ft | 145 kts | 210° |
| 2026-04-24 20:46 | 68.49110 | 14.97708 | 4345 ft | 147 kts | 211° |
| 2026-04-24 20:47 | 68.48209 | 14.96334 | 4586 ft | 149 kts | 212° |
| 2026-04-24 20:47 | 68.47263 | 14.95202 | 4820 ft | 151 kts | 188° |
| 2026-04-24 20:47 | 68.46225 | 14.95342 | 5062 ft | 150 kts | 170° |
| 2026-04-24 20:47 | 68.45187 | 14.95605 | 5300 ft | 150 kts | 176° |
| 2026-04-24 20:48 | 68.44492 | 14.95608 | 5472 ft | 151 kts | 181° |
| 2026-04-24 20:48 | 68.43440 | 14.95391 | 5743 ft | 153 kts | 186° |
| 2026-04-24 20:48 | 68.42387 | 14.95017 | 5970 ft | 152 kts | 188° |
| 2026-04-24 20:48 | 68.41342 | 14.94565 | 6206 ft | 152 kts | 189° |
| 2026-04-24 20:49 | 68.40299 | 14.94083 | 6458 ft | 152 kts | 190° |
| 2026-04-24 20:49 | 68.39254 | 14.93582 | 6678 ft | 152 kts | 190° |
| 2026-04-24 20:49 | 68.38214 | 14.93078 | 6915 ft | 152 kts | 191° |
| 2026-04-24 20:49 | 68.37178 | 14.92574 | 7138 ft | 151 kts | 191° |
| 2026-04-24 20:50 | 68.36154 | 14.92078 | 7363 ft | 149 kts | 191° |
| 2026-04-24 20:50 | 68.35138 | 14.91562 | 7614 ft | 149 kts | 191° |
| 2026-04-24 20:50 | 68.34115 | 14.91077 | 7876 ft | 150 kts | 191° |
| 2026-04-24 20:50 | 68.33039 | 14.90574 | 7892 ft | 163 kts | 191° |
| 2026-04-24 20:51 | 68.31897 | 14.90018 | 7906 ft | 171 kts | 191° |
| 2026-04-24 20:51 | 68.30709 | 14.89442 | 7910 ft | 176 kts | 191° |
| 2026-04-24 20:51 | 68.29492 | 14.88866 | 7915 ft | 179 kts | 191° |
| 2026-04-24 20:51 | 68.28273 | 14.88289 | 7908 ft | 177 kts | 191° |
| 2026-04-24 20:52 | 68.27065 | 14.87713 | 7911 ft | 176 kts | 191° |
| 2026-04-24 20:52 | 68.25865 | 14.87135 | 7904 ft | 174 kts | 191° |
| 2026-04-24 20:52 | 68.24673 | 14.86565 | 7907 ft | 174 kts | 191° |
| 2026-04-24 20:52 | 68.23484 | 14.85997 | 7900 ft | 173 kts | 191° |
| 2026-04-24 20:53 | 68.22295 | 14.85425 | 7907 ft | 173 kts | 191° |
| 2026-04-24 20:53 | 68.21106 | 14.84856 | 7909 ft | 173 kts | 191° |
| 2026-04-24 20:53 | 68.19917 | 14.84284 | 7910 ft | 174 kts | 191° |
| 2026-04-24 20:53 | 68.18723 | 14.83714 | 7902 ft | 175 kts | 191° |
| 2026-04-24 20:54 | 68.17520 | 14.83137 | 7907 ft | 176 kts | 190° |
| 2026-04-24 20:54 | 68.16310 | 14.82563 | 7907 ft | 177 kts | 191° |
| 2026-04-24 20:54 | 68.15115 | 14.81995 | 7907 ft | 177 kts | 191° |
| 2026-04-24 20:54 | 68.13902 | 14.81422 | 7907 ft | 177 kts | 191° |
| 2026-04-24 20:55 | 68.12688 | 14.80832 | 7907 ft | 177 kts | 192° |
| 2026-04-24 20:55 | 68.11479 | 14.80174 | 7907 ft | 177 kts | 192° |
| 2026-04-24 20:55 | 68.10268 | 14.79503 | 7906 ft | 178 kts | 192° |
| 2026-04-24 20:55 | 68.09057 | 14.78836 | 7906 ft | 178 kts | 192° |
| 2026-04-24 20:56 | 68.07842 | 14.78179 | 7903 ft | 178 kts | 192° |
| 2026-04-24 20:56 | 68.06628 | 14.77536 | 7895 ft | 178 kts | 192° |
| 2026-04-24 20:56 | 68.05411 | 14.76891 | 7895 ft | 178 kts | 192° |
| 2026-04-24 20:56 | 68.04194 | 14.76246 | 7895 ft | 178 kts | 192° |
| 2026-04-24 20:57 | 68.02978 | 14.75598 | 7895 ft | 178 kts | 192° |
| 2026-04-24 20:57 | 68.01762 | 14.74950 | 7896 ft | 178 kts | 192° |
| 2026-04-24 20:57 | 68.00547 | 14.74298 | 7895 ft | 179 kts | 192° |
| 2026-04-24 20:57 | 67.99326 | 14.73644 | 7894 ft | 179 kts | 192° |
| 2026-04-24 20:58 | 67.98106 | 14.72991 | 7892 ft | 178 kts | 192° |
| 2026-04-24 20:58 | 67.96891 | 14.72339 | 7894 ft | 178 kts | 192° |
| 2026-04-24 20:58 | 67.95672 | 14.71686 | 7894 ft | 178 kts | 192° |
| 2026-04-24 20:58 | 67.94455 | 14.71037 | 7893 ft | 179 kts | 192° |
| 2026-04-24 20:59 | 67.93236 | 14.70386 | 7883 ft | 179 kts | 192° |
| 2026-04-24 20:59 | 67.92019 | 14.69738 | 7884 ft | 178 kts | 192° |
| 2026-04-24 20:59 | 67.90801 | 14.69089 | 7885 ft | 178 kts | 192° |
| 2026-04-24 20:59 | 67.89586 | 14.68444 | 7884 ft | 178 kts | 192° |
| 2026-04-24 21:00 | 67.88369 | 14.67796 | 7884 ft | 178 kts | 192° |
| 2026-04-24 21:00 | 67.87150 | 14.67149 | 7882 ft | 179 kts | 192° |
| 2026-04-24 21:00 | 67.85927 | 14.66498 | 7884 ft | 180 kts | 192° |
| 2026-04-24 21:00 | 67.84700 | 14.65847 | 7886 ft | 180 kts | 192° |
| 2026-04-24 21:01 | 67.83472 | 14.65198 | 7886 ft | 180 kts | 192° |
| 2026-04-24 21:01 | 67.82243 | 14.64551 | 7885 ft | 180 kts | 192° |
| 2026-04-24 21:01 | 67.81016 | 14.63906 | 7884 ft | 180 kts | 192° |
| 2026-04-24 21:01 | 67.79788 | 14.63260 | 7875 ft | 180 kts | 192° |
| 2026-04-24 21:02 | 67.78563 | 14.62616 | 7875 ft | 179 kts | 192° |
| 2026-04-24 21:02 | 67.77341 | 14.61973 | 7877 ft | 179 kts | 192° |
| 2026-04-24 21:02 | 67.76118 | 14.61317 | 7876 ft | 179 kts | 192° |
| 2026-04-24 21:02 | 67.74892 | 14.60649 | 7875 ft | 180 kts | 192° |
| 2026-04-24 21:03 | 67.73663 | 14.59989 | 7876 ft | 181 kts | 192° |
| 2026-04-24 21:03 | 67.72427 | 14.59333 | 7878 ft | 181 kts | 192° |
| 2026-04-24 21:03 | 67.71193 | 14.58686 | 7875 ft | 181 kts | 192° |
| 2026-04-24 21:03 | 67.69959 | 14.58040 | 7875 ft | 180 kts | 192° |
| 2026-04-24 21:04 | 67.68730 | 14.57397 | 7876 ft | 180 kts | 192° |
| 2026-04-24 21:04 | 67.67500 | 14.56753 | 7871 ft | 180 kts | 192° |
| 2026-04-24 21:04 | 67.66284 | 14.56119 | 7870 ft | 181 kts | 192° |
| 2026-04-24 21:04 | 67.65051 | 14.55476 | 7870 ft | 181 kts | 192° |
| 2026-04-24 21:05 | 67.63813 | 14.54832 | 7872 ft | 181 kts | 192° |
| 2026-04-24 21:05 | 67.62576 | 14.54189 | 7874 ft | 181 kts | 192° |
| 2026-04-24 21:05 | 67.61336 | 14.53553 | 7873 ft | 181 kts | 191° |
| 2026-04-24 21:05 | 67.60095 | 14.52949 | 7874 ft | 181 kts | 191° |
| 2026-04-24 21:06 | 67.58859 | 14.52355 | 7873 ft | 181 kts | 191° |
| 2026-04-24 21:06 | 67.57620 | 14.51741 | 7873 ft | 181 kts | 192° |
| 2026-04-24 21:06 | 67.56473 | 14.50518 | 7870 ft | 178 kts | 217° |
| 2026-04-24 21:06 | 67.55530 | 14.48462 | 7874 ft | 176 kts | 227° |
| 2026-04-24 21:07 | 67.54629 | 14.46283 | 7874 ft | 176 kts | 226° |
| 2026-04-24 21:07 | 67.53716 | 14.44146 | 7868 ft | 176 kts | 225° |
| 2026-04-24 21:07 | 67.52786 | 14.42053 | 7870 ft | 177 kts | 224° |
| 2026-04-24 21:07 | 67.51851 | 14.39970 | 7871 ft | 177 kts | 224° |
| 2026-04-24 21:08 | 67.50912 | 14.37897 | 7870 ft | 176 kts | 224° |
| 2026-04-24 21:08 | 67.49969 | 14.35826 | 7876 ft | 177 kts | 224° |
| 2026-04-24 21:08 | 67.49028 | 14.33756 | 7876 ft | 177 kts | 224° |
| 2026-04-24 21:08 | 67.48080 | 14.31685 | 7801 ft | 181 kts | 224° |
| 2026-04-24 21:09 | 67.47094 | 14.29532 | 7610 ft | 188 kts | 223° |
| 2026-04-24 21:09 | 67.46081 | 14.27336 | 7427 ft | 191 kts | 223° |
| 2026-04-24 21:09 | 67.45051 | 14.25115 | 7241 ft | 193 kts | 223° |
| 2026-04-24 21:09 | 67.44018 | 14.22887 | 7054 ft | 193 kts | 223° |
| 2026-04-24 21:10 | 67.42989 | 14.20669 | 6868 ft | 192 kts | 223° |
| 2026-04-24 21:10 | 67.41964 | 14.18436 | 6688 ft | 192 kts | 223° |
| 2026-04-24 21:10 | 67.40940 | 14.16212 | 6500 ft | 191 kts | 222° |
| 2026-04-24 21:10 | 67.39918 | 14.14015 | 6323 ft | 190 kts | 222° |
| 2026-04-24 21:11 | 67.38901 | 14.11821 | 6134 ft | 190 kts | 223° |
| 2026-04-24 21:11 | 67.37885 | 14.09626 | 5950 ft | 190 kts | 223° |
| 2026-04-24 21:11 | 67.36868 | 14.07424 | 5758 ft | 191 kts | 223° |
| 2026-04-24 21:11 | 67.35848 | 14.05233 | 5569 ft | 191 kts | 222° |
| 2026-04-24 21:12 | 67.34827 | 14.03044 | 5300 ft | 194 kts | 222° |
| 2026-04-24 21:12 | 67.33782 | 14.00805 | 5034 ft | 195 kts | 222° |
| 2026-04-24 21:12 | 67.32734 | 13.98563 | 4758 ft | 193 kts | 222° |
| 2026-04-24 21:12 | 67.31669 | 13.96818 | 4429 ft | 172 kts | 200° |
| 2026-04-24 21:13 | 67.30532 | 13.96571 | 4017 ft | 161 kts | 167° |
| 2026-04-24 21:13 | 67.29461 | 13.97183 | 3611 ft | 156 kts | 162° |
| 2026-04-24 21:13 | 67.28395 | 13.97830 | 3211 ft | 160 kts | 162° |
| 2026-04-24 21:13 | 67.27318 | 13.98477 | 2941 ft | 157 kts | 163° |
| 2026-04-24 21:14 | 67.26260 | 13.99080 | 2673 ft | 155 kts | 163° |
| 2026-04-24 21:14 | 67.25213 | 13.99678 | 2387 ft | 153 kts | 163° |
| 2026-04-24 21:14 | 67.24182 | 14.00331 | 2136 ft | 151 kts | 156° |
| 2026-04-24 21:14 | 67.23459 | 14.01907 | 2000 ft | 128 kts | 102° |
| 2026-04-24 21:15 | 67.23510 | 14.03937 | 1960 ft | 108 kts | 65° |
| 2026-04-24 21:15 | 67.23738 | 14.05661 | 1939 ft | 97 kts | 60° |
| 2026-04-24 21:15 | 67.23987 | 14.07235 | 1934 ft | 94 kts | 59° |
| 2026-04-24 21:15 | 67.24227 | 14.08813 | 1929 ft | 94 kts | 59° |
| 2026-04-24 21:16 | 67.24455 | 14.10390 | 1926 ft | 94 kts | 60° |
| 2026-04-24 21:16 | 67.24670 | 14.12029 | 1782 ft | 98 kts | 62° |
| 2026-04-24 21:16 | 67.24881 | 14.13716 | 1644 ft | 99 kts | 63° |
| 2026-04-24 21:16 | 67.25081 | 14.15431 | 1501 ft | 100 kts | 66° |
| 2026-04-24 21:17 | 67.25255 | 14.17103 | 1372 ft | 90 kts | 66° |
| 2026-04-24 21:17 | 67.25401 | 14.18625 | 1224 ft | 85 kts | 65° |
| 2026-04-24 21:17 | 67.25526 | 14.20094 | 1095 ft | 82 kts | 66° |
| 2026-04-24 21:17 | 67.25605 | 14.21036 | 1031 ft | 79 kts | 63° |
| 2026-04-24 21:18 | 67.25772 | 14.22828 | 889 ft | 77 kts | 66° |
| 2026-04-24 21:18 | 67.25880 | 14.24173 | 817 ft | 76 kts | 70° |
| 2026-04-24 21:18 | 67.25981 | 14.25508 | 742 ft | 75 kts | 64° |
| 2026-04-24 21:18 | 67.26148 | 14.26858 | 566 ft | 83 kts | 70° |
| 2026-04-24 21:19 | 67.26230 | 14.28326 | 434 ft | 81 kts | 71° |
| 2026-04-24 21:19 | 67.26345 | 14.29675 | 365 ft | 75 kts | 65° |
| 2026-04-24 21:19 | 67.26471 | 14.31008 | 258 ft | 79 kts | 68° |
| 2026-04-24 21:19 | 67.26573 | 14.32364 | 143 ft | 72 kts | 69° |
| 2026-04-24 21:20 | 67.26752 | 14.34511 | 32 ft | 47 kts | 71° |
| 2026-04-24 21:20 | 67.26801 | 14.35084 | 34 ft | 26 kts | 78° |
| 2026-04-24 21:20 | 67.26852 | 14.35601 | 35 ft | 31 kts | 73° |
| 2026-04-24 21:21 | 67.26882 | 14.35942 | 36 ft | 10 kts | 26° |
| 2026-04-24 21:21 | 67.26928 | 14.35948 | 37 ft | 7 kts | 348° |
| 2026-04-24 21:21 | 67.26989 | 14.35928 | 38 ft | 8 kts | 14° |
| 2026-04-24 21:21 | 67.27024 | 14.36081 | 41 ft | 10 kts | 57° |
| 2026-04-24 21:22 | 67.27077 | 14.36136 | 43 ft | 11 kts | 343° |
| 2026-04-24 21:22 | 67.27111 | 14.36167 | 43 ft | 7 kts | 86° |
| 2026-04-24 21:22 | 67.27111 | 14.36269 | 43 ft | 3 kts | 89° |
| 2026-04-24 21:22 | 67.27112 | 14.36297 | 44 ft | 1 kts | 89° |
| 2026-04-24 21:23 | 67.27112 | 14.36298 | 44 ft | 0 kts | 89° |